createdAt,value
2024-04-18T00:00:52.414Z,3.20
2024-04-18T00:06:15.427Z,3.40
2024-04-18T00:11:22.526Z,3.50
2024-04-18T00:16:27.062Z,3.60
2024-04-18T00:21:34.840Z,3.70
2024-04-18T00:26:41.922Z,3.40
2024-04-18T00:31:46.409Z,3.30
2024-04-18T00:36:50.896Z,3.70
2024-04-18T00:41:58.018Z,3.80
2024-04-18T00:47:03.010Z,3.60
2024-04-18T00:52:07.783Z,3.50
2024-04-18T00:57:15.738Z,3.30
2024-04-18T01:02:20.732Z,3.10
2024-04-18T01:07:25.427Z,2.90
2024-04-18T01:12:32.867Z,2.80
2024-04-18T01:17:38.197Z,2.50
2024-04-18T01:22:43.230Z,2.30
2024-04-18T01:27:50.394Z,2.20
2024-04-18T01:32:54.921Z,2.10
2024-04-18T01:37:59.384Z,2.10
2024-04-18T01:43:06.724Z,2.10
2024-04-18T01:48:11.453Z,2.20
2024-04-18T01:53:16.018Z,2.10
2024-04-18T01:58:23.139Z,2.00
2024-04-18T02:03:27.663Z,2.00
2024-04-18T02:08:32.209Z,2.10
2024-04-18T02:13:39.290Z,2.00
2024-04-18T02:18:43.843Z,1.80
2024-04-18T02:23:48.353Z,1.70
2024-04-18T02:28:55.405Z,1.70
2024-04-18T02:33:59.887Z,1.70
2024-04-18T02:39:04.350Z,1.70
2024-04-18T02:44:11.442Z,1.70
2024-04-18T02:49:15.923Z,1.70
2024-04-18T02:54:20.415Z,1.80
2024-04-18T02:59:27.461Z,1.90
2024-04-18T03:04:32.113Z,1.80
2024-04-18T03:09:36.666Z,1.70
2024-04-18T03:14:44.083Z,1.70
2024-04-18T03:19:48.581Z,1.70
2024-04-18T03:24:53.063Z,1.70
2024-04-18T03:30:00.412Z,1.70
2024-04-18T03:35:05.057Z,1.60
2024-04-18T03:40:10.450Z,1.50
2024-04-18T03:45:17.720Z,1.50
2024-04-18T03:50:22.442Z,1.40
2024-04-18T03:55:27.193Z,1.30
2024-04-18T04:00:34.445Z,1.30
2024-04-18T04:05:38.995Z,1.40
2024-04-18T04:10:43.620Z,1.50
2024-04-18T04:15:53.942Z,1.70
2024-04-18T04:20:58.413Z,1.80
2024-04-18T04:31:34.610Z,1.70
2024-04-18T04:36:40.427Z,1.70
2024-04-18T04:41:47.288Z,1.60
2024-04-18T04:46:54.688Z,1.50
2024-04-18T04:51:59.171Z,1.60
2024-04-18T04:57:04.160Z,1.80
2024-04-18T05:02:11.540Z,2.00
2024-04-18T05:07:16.037Z,2.30
2024-04-18T05:12:20.499Z,2.60
2024-04-18T05:17:28.011Z,2.80
2024-04-18T05:22:32.489Z,3.20
2024-04-18T05:27:44.012Z,3.50
2024-04-18T05:32:51.124Z,3.70
2024-04-18T05:37:55.688Z,3.80
2024-04-18T05:43:00.207Z,4.20
2024-04-18T05:48:07.525Z,4.70
2024-04-18T05:53:12.031Z,5.10
2024-04-18T05:58:17.171Z,5.50
2024-04-18T06:03:25.622Z,6.00
2024-04-18T06:08:31.116Z,7.30
2024-04-18T06:13:38.215Z,8.60
2024-04-18T06:18:45.285Z,9.10
2024-04-18T06:23:49.802Z,9.30
2024-04-18T06:28:54.300Z,9.80
2024-04-18T06:34:01.647Z,10.50
2024-04-18T06:39:08.676Z,10.10
2024-04-18T06:44:13.193Z,9.50
2024-04-18T06:49:20.233Z,9.30
2024-04-18T06:54:25.677Z,9.20
2024-04-18T06:59:30.183Z,9.60
2024-04-18T07:04:37.690Z,9.90
2024-04-18T07:09:42.448Z,9.60
2024-04-18T07:14:47.013Z,9.90
2024-04-18T07:19:54.252Z,10.20
2024-04-18T07:24:58.794Z,9.90
2024-04-18T07:30:03.305Z,10.30
2024-04-18T07:35:10.982Z,11.00
2024-04-18T07:40:19.588Z,10.60
2024-04-18T07:45:24.379Z,10.60
2024-04-18T07:50:31.468Z,10.70
2024-04-18T07:55:36.149Z,10.60
2024-04-18T08:00:42.092Z,10.90
2024-04-18T08:05:52.053Z,10.80
2024-04-18T08:11:16.766Z,10.70
2024-04-18T08:16:25.255Z,11.20
2024-04-18T08:21:32.477Z,12.00
2024-04-18T08:26:39.032Z,13.30
2024-04-18T08:31:43.547Z,16.00
2024-04-18T08:36:50.629Z,19.30
2024-04-18T08:41:57.046Z,15.50
2024-04-18T08:47:03.151Z,14.50
2024-04-18T08:52:11.109Z,18.30
2024-04-18T08:57:20.198Z,20.90
2024-04-18T09:02:24.848Z,24.00
2024-04-18T09:07:31.986Z,21.10
2024-04-18T09:12:36.776Z,20.40
2024-04-18T09:17:42.180Z,22.20
2024-04-18T09:22:49.276Z,20.60
2024-04-18T09:27:53.742Z,16.90
2024-04-18T09:33:01.860Z,14.60
2024-04-18T09:38:15.016Z,13.50
2024-04-18T09:43:25.826Z,13.00
2024-04-18T09:48:33.962Z,16.00
2024-04-18T09:53:42.173Z,16.60
2024-04-18T09:58:47.925Z,15.40
2024-04-18T10:03:52.583Z,14.30
2024-04-18T10:09:01.326Z,13.30
2024-04-18T10:14:09.889Z,12.10
2024-04-18T10:19:14.792Z,11.70
2024-04-18T10:24:22.314Z,12.00
2024-04-18T10:29:28.076Z,13.50
2024-04-18T10:34:33.739Z,13.80
2024-04-18T10:39:44.531Z,12.90
2024-04-18T10:44:49.934Z,18.20
2024-04-18T10:49:54.937Z,24.50
2024-04-18T10:55:02.324Z,27.00
2024-04-18T11:00:08.400Z,23.60
2024-04-18T11:05:12.981Z,19.90
2024-04-18T11:10:20.405Z,16.80
2024-04-18T11:15:26.195Z,16.00
2024-04-18T11:20:32.116Z,16.30
2024-04-18T11:25:42.862Z,16.10
2024-04-18T11:30:47.476Z,15.30
2024-04-18T11:35:52.300Z,14.70
2024-04-18T11:40:59.375Z,15.00
2024-04-18T11:46:03.973Z,14.80
2024-04-18T11:51:08.566Z,14.30
2024-04-18T11:56:15.822Z,13.90
2024-04-18T12:01:20.316Z,13.70
2024-04-18T12:06:25.321Z,13.90
2024-04-18T12:11:33.648Z,15.20
2024-04-18T12:16:38.526Z,17.10
2024-04-18T12:21:43.074Z,18.30
2024-04-18T12:26:50.133Z,18.30
2024-04-18T12:31:54.965Z,18.60
2024-04-18T12:36:59.597Z,16.50
2024-04-18T12:42:07.162Z,16.20
2024-04-18T12:47:11.738Z,18.40
2024-04-18T12:52:16.291Z,18.70
2024-04-18T12:57:23.423Z,22.20
2024-04-18T13:02:34.876Z,24.50
2024-04-18T13:07:40.054Z,22.30
2024-04-18T13:12:47.199Z,20.30
2024-04-18T13:17:51.718Z,19.10
2024-04-18T13:22:56.511Z,17.90
2024-04-18T13:28:03.675Z,18.20
2024-04-18T13:33:08.402Z,22.50
2024-04-18T13:38:12.956Z,25.50
2024-04-18T13:43:20.044Z,25.20
2024-04-18T13:48:24.577Z,23.70
2024-04-18T13:53:29.057Z,25.30
2024-04-18T13:58:36.374Z,27.80
2024-04-18T14:03:41.346Z,29.50
2024-04-18T14:08:45.898Z,26.00
2024-04-18T14:13:53.010Z,21.40
2024-04-18T14:18:59.077Z,19.40
2024-04-18T14:24:03.929Z,17.90
2024-04-18T14:29:11.002Z,16.50
2024-04-18T14:34:15.632Z,15.80
2024-04-18T14:39:20.264Z,15.20
2024-04-18T14:44:27.698Z,14.70
2024-04-18T14:49:35.034Z,14.40
2024-04-18T14:54:41.089Z,15.10
2024-04-18T14:59:48.152Z,19.50
2024-04-18T15:04:52.770Z,22.00
2024-04-18T15:09:57.425Z,21.50
2024-04-18T15:15:04.622Z,20.20
2024-04-18T15:20:12.545Z,18.90
2024-04-18T15:25:17.141Z,18.80
2024-04-18T15:30:24.249Z,18.40
2024-04-18T15:35:28.727Z,17.50
2024-04-18T15:40:34.900Z,17.00
2024-04-18T15:45:45.137Z,16.00
2024-04-18T15:50:49.762Z,15.10
2024-04-18T15:55:56.378Z,14.50
2024-04-18T16:01:03.547Z,14.80
2024-04-18T16:06:08.454Z,15.10
2024-04-18T16:11:13.026Z,14.70
2024-04-18T16:16:20.125Z,14.30
2024-04-18T16:21:24.806Z,14.40
2024-04-18T16:26:29.243Z,14.00
2024-04-18T16:31:36.506Z,13.70
2024-04-18T16:36:49.779Z,14.30
2024-04-18T16:42:00.291Z,14.90
2024-04-18T16:47:08.048Z,14.70
2024-04-18T16:52:12.856Z,13.70
2024-04-18T16:57:17.494Z,13.20
2024-04-18T17:02:24.557Z,13.10
2024-04-18T17:07:29.028Z,13.40
2024-04-18T17:12:33.522Z,14.00
2024-04-18T17:17:40.768Z,14.30
2024-04-18T17:22:45.332Z,13.40
2024-04-18T17:27:49.852Z,12.40
2024-04-18T17:32:56.895Z,11.80
2024-04-18T17:38:02.148Z,11.30
2024-04-18T17:43:07.095Z,11.20
2024-04-18T17:48:15.613Z,10.80
2024-04-18T17:53:20.223Z,10.40
2024-04-18T17:58:24.822Z,10.00
2024-04-18T18:03:32.135Z,9.70
2024-04-18T18:08:36.815Z,9.30
2024-04-18T18:13:41.327Z,9.10
2024-04-18T18:18:48.595Z,8.80
2024-04-18T18:23:53.307Z,8.40
2024-04-18T18:28:58.011Z,8.30
2024-04-18T18:34:05.157Z,8.00
2024-04-18T18:39:10.219Z,7.90
2024-04-18T18:44:16.750Z,7.80
2024-04-18T18:49:25.238Z,7.70
2024-04-18T18:54:29.944Z,7.50
2024-04-18T18:59:34.935Z,7.30
2024-04-18T19:04:42.327Z,7.00
2024-04-18T19:09:46.868Z,6.70
2024-04-18T19:14:51.456Z,6.60
2024-04-18T19:19:58.864Z,6.50
2024-04-18T19:25:03.461Z,6.30
2024-04-18T19:30:09.029Z,6.20
2024-04-18T19:35:16.405Z,6.20
2024-04-18T19:40:21.003Z,6.30
2024-04-18T19:45:27.425Z,5.90
2024-04-18T19:50:36.774Z,5.70
2024-04-18T19:55:41.439Z,5.70
2024-04-18T20:00:46.234Z,5.60
2024-04-18T20:05:53.738Z,5.50
2024-04-18T20:10:58.289Z,5.20
2024-04-18T20:16:02.890Z,5.10
2024-04-18T20:21:10.248Z,4.90
2024-04-18T20:26:14.928Z,4.80
2024-04-18T20:31:19.639Z,4.70
2024-04-18T20:36:26.707Z,4.60
2024-04-18T20:41:31.252Z,4.50
2024-04-18T20:46:38.350Z,4.50
2024-04-18T20:51:45.730Z,4.50
2024-04-18T20:56:50.438Z,4.30
2024-04-18T21:01:55.608Z,4.40
2024-04-18T21:07:02.908Z,4.40
2024-04-18T21:12:08.341Z,4.40
2024-04-18T21:17:13.099Z,4.40
2024-04-18T21:22:20.283Z,4.60
2024-04-18T21:27:24.972Z,4.60
2024-04-18T21:32:29.704Z,4.60
2024-04-18T21:37:37.172Z,4.60
2024-04-18T21:42:41.868Z,4.70
2024-04-18T21:47:46.637Z,4.80
2024-04-18T21:52:53.960Z,5.00
2024-04-18T21:57:58.858Z,5.20
2024-04-18T22:03:03.497Z,5.40
2024-04-18T22:08:11.153Z,5.50
2024-04-18T22:13:15.917Z,5.70
2024-04-18T22:18:20.631Z,5.80
2024-04-18T22:23:27.939Z,6.20
2024-04-18T22:28:32.577Z,6.40
2024-04-18T22:33:38.125Z,6.40
2024-04-18T22:38:45.754Z,6.30
2024-04-18T22:43:50.607Z,6.40
2024-04-18T22:48:56.430Z,6.60
2024-04-18T22:54:03.690Z,6.80
2024-04-18T22:59:08.350Z,6.80
2024-04-18T23:04:13.133Z,6.80
2024-04-18T23:09:20.411Z,6.80
2024-04-18T23:14:25.104Z,6.50
2024-04-18T23:19:29.821Z,6.40
2024-04-18T23:24:37.144Z,6.40
2024-04-18T23:29:41.746Z,6.30
2024-04-18T23:34:46.320Z,6.30
2024-04-18T23:39:53.646Z,6.40
2024-04-18T23:44:58.425Z,6.50
2024-04-18T23:50:04.133Z,6.60
2024-04-18T23:55:11.502Z,6.40
